Latest Weather Observations for Montague Island

IDN60801

Issued at 2:34 am EDT Saturday 7 March 2015 (issued every 30 minutes, with the page automatically refreshed every 10 minutes)

About weather observations | Map of weather stations | Latest weather observations for NSW | Other Formats
Station Details ID: 069017 Name: MONTAGUE ISLAND LIGHTHOUSE Lat: -36.25 Lon: 150.23 Height: 52.0 m
Data from the previous 72 hours. | See also: Recent months at Montague Island
Date/Time
EDT
Temp
°C
App
Temp
°C
Dew
Point
Rel
Hum
%
Delta-T
°C
Wind Press
QNH
hPa
Press
MSL
hPa
Rain
since 9 am
mm
Dir
 
Spd
km/h
Gust
km/h
Spd
kts
Gust
kts
07/02:30am 18.6 15.4 14.3 76 2.5 SSW 24 30 13 16 1010.0 1009.9 0.0
07/02:00am 18.8 15.0 14.7 77 2.4 SSW 28 35 15 19 1010.2 1010.1 0.0
07/01:30am 18.6 13.8 14.5 77 2.4 S 33 41 18 22 1010.0 1009.9 0.0
07/01:00am 19.0 14.0 15.1 78 2.3 S 35 44 19 24 1009.9 1009.8 0.0
07/12:30am 18.8 12.9 14.7 77 2.4 S 39 46 21 25 1009.7 1009.6 0.0
07/12:00am 18.8 12.9 14.7 77 2.4 S 39 48 21 26 1009.4 1009.3 0.0
 
Date/Time
EDT
Temp
°C
App
Temp
°C
Dew
Point
Rel
Hum
%
Delta-T
°C
Wind Press
QNH
hPa
Press
MSL
hPa
Rain
since 9 am
mm
Dir
 
Spd
km/h
Gust
km/h
Spd
kts
Gust
kts
06/11:30pm 18.9 12.3 14.8 77 2.4 S 43 52 23 28 1009.1 1009.0 0.0
06/11:00pm 19.1 12.6 15.0 77 2.4 S 43 50 23 27 1008.9 1008.8 0.0
06/10:30pm 19.2 12.5 15.1 77 2.4 S 44 54 24 29 1008.6 1008.5 0.0
06/10:00pm 19.3 11.8 15.0 76 2.5 S 48 59 26 32 1008.3 1008.2 0.0
06/09:30pm 19.6 12.6 15.3 76 2.5 SSW 46 56 25 30 1008.3 1008.2 0.0
06/09:00pm 19.8 12.5 15.4 76 2.6 S 48 57 26 31 1007.9 1007.8 0.0
06/08:30pm 19.9 13.3 15.3 75 2.7 S 44 54 24 29 1007.3 1007.2 0.0
06/08:00pm 20.3 14.2 15.3 73 3.0 S 41 50 22 27 1006.7 1006.5 0.0
06/07:40pm 21.0 15.4 15.5 71 3.3 S 39 57 21 31 1006.4 1006.2 0.0
06/07:30pm 21.1 14.7 15.9 72 3.1 S 44 57 24 31 1006.0 1005.8 0.0
06/07:16pm 21.6 15.0 16.3 72 3.2 SSE 46 61 25 33 1005.5 1005.3 0.0
06/07:00pm 21.2 14.8 16.0 72 3.1 SE 44 59 24 32 1005.1 1004.9 0.0
06/06:35pm 22.1 22.2 15.5 66 4.0 NW 9 48 5 26 1005.0 1004.8 0.0
06/06:30pm 23.6 23.3 14.3 56 5.5 WSW 9 22 5 12 1004.9 1004.7 0.0
06/06:00pm 23.7 23.0 14.4 56 5.5 SE 11 20 6 11 1004.3 1004.1 0.0
06/05:30pm 23.0 20.4 13.8 56 5.4 E 20 30 11 16 1004.1 1003.9 0.0
06/05:00pm 23.0 18.0 13.5 55 5.5 E 32 37 17 20 1003.8 1003.6 0.0
06/04:30pm 23.0 19.2 12.3 51 6.1 E 24 28 13 15 1003.6 1003.4 0.0
06/04:00pm 23.6 20.5 11.6 47 6.8 ENE 19 24 10 13 1003.6 1003.4 0.0
06/03:30pm 23.3 20.2 9.0 40 7.7 ENE 15 19 8 10 1003.7 1003.5 0.0
06/03:00pm 23.7 20.1 9.7 41 7.7 ENE 19 22 10 12 1003.6 1003.4 0.0
06/02:30pm 23.6 19.6 8.1 37 8.2 E 19 22 10 12 1003.7 1003.5 0.0
06/02:00pm 23.4 19.7 7.9 37 8.2 E 17 20 9 11 1003.6 1003.4 0.0
06/01:30pm 23.2 19.7 7.3 36 8.3 ESE 15 17 8 9 1003.6 1003.4 0.0
06/01:00pm 23.7 20.1 5.1 30 9.4 E 13 17 7 9 1003.7 1003.5 0.0
06/12:30pm 23.1 20.1 6.0 33 8.7 E 11 13 6 7 1003.8 1003.6 0.0
06/12:00pm 22.4 20.3 8.1 40 7.6 ENE 9 15 5 8 1004.0 1003.8 0.0
06/11:30am 22.3 20.5 9.5 44 6.9 NNE 9 15 5 8 1003.9 1003.7 0.0
06/11:00am 21.4 19.0 5.3 35 8.0 NNW 7 15 4 8 1004.4 1004.2 0.0
06/10:30am 21.2 18.9 5.6 36 7.8 NNW 7 15 4 8 1004.6 1004.4 0.0
06/10:00am 20.7 18.9 8.0 44 6.6 NNW 7 13 4 7 1004.6 1004.4 0.0
06/09:30am 20.1 17.2 6.5 41 6.9 NNW 11 17 6 9 1004.3 1004.1 0.0
06/09:00am 19.8 17.1 5.8 40 7.0 NW 9 13 5 7 1004.5 1004.3 0.0
06/08:30am 18.8 16.2 3.0 35 7.4 WNW 6 9 3 5 1004.5 1004.3 0.0
06/08:00am 17.4 15.8 8.0 54 4.8 WNW 6 9 3 5 1004.4 1004.2 0.0
06/07:30am 16.8 13.8 6.0 49 5.3 WNW 11 13 6 7 1004.5 1004.3 0.0
06/07:00am 16.7 13.2 7.1 53 4.8 WNW 15 17 8 9 1004.6 1004.4 0.0
06/06:30am 17.2 14.2 9.1 59 4.2 WNW 15 20 8 11 1004.2 1004.0 0.0
06/06:00am 17.2 13.5 8.1 55 4.7 NW 17 22 9 12 1004.3 1004.1 0.0
06/05:30am 16.4 13.7 10.5 68 3.1 NW 15 20 8 11 1004.8 1004.6 0.0
06/05:00am 16.6 13.6 10.7 68 3.2 NW 17 20 9 11 1005.2 1005.0 0.0
06/04:30am 16.9 14.2 10.5 66 3.4 NW 15 20 8 11 1005.6 1005.4 0.0
06/04:00am 17.6 13.6 10.5 63 3.8 NNW 22 28 12 15 1006.0 1005.8 0.0
06/03:30am 18.0 12.7 9.9 59 4.3 NNW 28 35 15 19 1006.4 1006.2 0.0
06/03:00am 17.9 11.7 9.3 57 4.5 NNW 32 41 17 22 1007.0 1006.8 0.0
06/02:30am 18.0 11.5 10.4 61 4.1 NNW 35 44 19 24 1007.4 1007.3 0.0
06/02:00am 18.2 11.8 8.7 54 4.9 NNW 32 44 17 24 1007.9 1007.8 0.0
06/01:30am 18.1 11.6 6.6 47 5.7 NNW 30 39 16 21 1008.5 1008.4 0.0
06/01:29am 18.2 12.2 7.0 48 5.6 NNW 28 39 15 21 1008.5 1008.4 0.0
06/01:00am 17.0 13.0 4.7 44 5.9 N 15 20 8 11 1009.1 1009.0 0.0
06/12:30am 16.5 13.5 4.2 44 5.8 W 9 15 5 8 1009.7 1009.6 0.0
06/12:00am 16.8 13.2 4.8 45 5.7 W 13 19 7 10 1010.0 1009.9 0.0
 
Date/Time
EDT
Temp
°C
App
Temp
°C
Dew
Point
Rel
Hum
%
Delta-T
°C
Wind Press
QNH
hPa
Press
MSL
hPa
Rain
since 9 am
mm
Dir
 
Spd
km/h
Gust
km/h
Spd
kts
Gust
kts
05/11:30pm 17.6 12.0 5.5 45 5.9 SW 24 30 13 16 1010.3 1010.2 0.0
05/11:00pm 17.9 11.0 4.5 41 6.4 SSW 30 37 16 20 1010.3 1010.2 0.0
05/10:30pm 18.1 12.0 4.7 41 6.4 SSW 26 35 14 19 1010.9 1010.8 0.0
05/10:00pm 18.4 10.5 4.2 39 6.8 SSW 35 43 19 23 1011.1 1011.0 0.0
05/09:30pm 18.6 9.5 4.0 38 6.9 SSW 41 48 22 26 1010.8 1010.7 0.0
05/09:00pm 18.7 10.7 3.7 37 7.1 SSW 35 46 19 25 1010.6 1010.5 0.0
05/08:30pm 18.9 11.1 2.7 34 7.5 SSW 33 43 18 23 1010.4 1010.3 0.0
05/08:00pm 19.0 10.7 2.4 33 7.7 SSW 35 43 19 23 1010.2 1010.1 0.0
05/07:30pm 19.3 11.0 2.2 32 7.9 SSW 35 50 19 27 1010.3 1010.2 0.0
05/07:00pm 19.6 10.7 3.3 34 7.7 SSW 39 48 21 26 1010.4 1010.3 0.0
05/06:30pm 19.9 9.8 1.4 29 8.4 SSW 44 57 24 31 1010.0 1009.9 0.0
05/06:00pm 20.3 9.7 3.1 32 8.1 SSW 48 59 26 32 1009.7 1009.6 0.0
05/05:30pm 20.5 10.8 5.7 38 7.4 SSW 46 56 25 30 1009.6 1009.5 0.0
05/05:00pm 20.8 11.4 5.6 37 7.6 SSW 44 57 24 31 1009.4 1009.3 0.0
05/04:32pm 21.2 12.7 5.1 35 8.0 SSW 39 57 21 31 1009.4 1009.3 0.0
05/04:30pm 21.2 11.9 3.0 30 8.6 SSW 41 56 22 30 1009.3 1009.2 0.0
05/04:00pm 21.1 11.6 3.8 32 8.3 SSW 43 56 23 30 1009.1 1009.0 0.0
05/03:56pm 21.3 12.1 5.6 36 7.8 SSW 43 63 23 34 1009.2 1009.1 0.0
05/03:30pm 21.2 11.3 3.0 30 8.6 SW 44 57 24 31 1009.3 1009.2 0.0
05/03:00pm 21.5 11.0 3.7 31 8.6 SW 48 61 26 33 1009.4 1009.3 0.0
05/02:30pm 21.7 10.1 1.4 26 9.4 SW 52 65 28 35 1009.5 1009.4 0.0
05/02:22pm 21.5 11.9 3.2 30 8.7 SW 43 63 23 34 1009.6 1009.5 0.0
05/02:00pm 21.1 9.0 3.3 31 8.5 SW 56 70 30 38 1009.6 1009.5 0.0
05/01:30pm 21.3 8.8 1.0 26 9.3 SW 56 70 30 38 1009.4 1009.3 0.0
05/01:09pm 21.0 8.4 1.3 27 9.0 SW 57 80 31 43 1009.3 1009.2 0.0
05/01:00pm 20.9 8.6 2.2 29 8.7 SW 56 72 30 39 1009.2 1009.1 0.0
05/12:33pm 20.9 7.8 3.2 31 8.4 SW 61 83 33 45 1009.3 1009.2 0.0
05/12:30pm 20.5 6.6 0.4 26 9.0 SW 63 83 34 45 1009.2 1009.1 0.0
05/12:14pm 21.0 11.1 2.8 30 8.6 SW 44 65 24 35 1009.4 1009.3 0.0
05/12:00pm 20.4 10.3 1.8 29 8.6 SSW 44 54 24 29 1009.4 1009.3 0.0
05/11:47am 20.1 8.7 2.9 32 8.1 SSW 52 67 28 36 1009.3 1009.2 0.0
05/11:30am 19.7 5.6 1.7 30 8.2 SW 65 83 35 45 1008.7 1008.6 0.0
05/11:02am 19.5 5.8 5.6 40 6.9 SW 67 85 36 46 1008.0 1007.9 0.0
05/11:00am 19.6 5.3 4.9 38 7.2 SW 69 85 37 46 1007.9 1007.8 0.0
05/10:32am 18.9 3.8 5.4 41 6.6 SW 74 95 40 51 1006.7 1006.5 0.0
05/10:30am 19.0 4.2 6.8 45 6.1 SW 74 91 40 49 1006.8 1006.6 0.0
05/10:25am 19.0 5.0 8.4 50 5.5 SW 72 91 39 49 1006.8 1006.6 0.0
05/10:00am 18.5 6.5 9.6 56 4.7 SW 63 78 34 42 1006.5 1006.3 0.0
05/09:31am 18.9 8.0 12.2 65 3.7 SSW 61 82 33 44 1006.1 1005.9 0.0
05/09:30am 19.1 7.9 12.6 66 3.6 SSW 63 82 34 44 1006.1 1005.9 0.0
05/09:01am 19.1 11.6 12.8 67 3.5 S 44 78 24 42 1005.5 1005.3 0.0
05/09:00am 19.6 13.0 13.8 69 3.3 S 41 76 22 41 1005.8 1005.6 0.0
05/08:58am 20.3 15.1 15.5 74 2.9 S 37 57 20 31 1006.1 1005.9 0.0
05/08:50am 19.9 15.3 15.1 74 2.8 SSW 33 48 18 26 1005.8 1005.6 0.0
05/08:30am 19.8 15.7 14.8 73 2.9 SW 30 35 16 19 1005.2 1005.0 0.0
05/08:00am 19.6 16.3 16.1 80 2.1 SSW 28 39 15 21 1004.8 1004.6 0.0
05/07:57am 19.6 15.9 16.1 80 2.1 SSW 30 48 16 26 1004.7 1004.5 0.0
05/07:30am 19.7 14.2 15.8 78 2.3 SSW 39 50 21 27 1004.2 1004.0 0.0
05/07:00am 18.9 15.0 17.0 89 1.2 SSW 33 43 18 23 1003.8 1003.6 0.0
05/06:30am 19.1 16.0 18.3 95 0.5 SSW 32 41 17 22 1003.3 1003.1 0.0
05/06:23am 19.2 16.9 18.4 95 0.5 SSW 28 39 15 21 1003.2 1003.0 0.0
05/06:00am 19.1 19.5 18.1 94 0.6 SSW 13 19 7 10 1002.9 1002.7 0.0
05/05:30am 18.9 19.7 18.1 95 0.5 SSW 11 15 6 8 1002.6 1002.4 0.0
05/05:00am 19.2 20.5 18.5 96 0.4 SSW 9 15 5 8 1002.8 1002.6 0.0
05/04:30am 19.1 20.9 18.4 96 0.4 W 6 11 3 6 1002.6 1002.4 0.0
05/04:00am 19.0 19.8 18.2 95 0.5 W 11 17 6 9 1002.9 1002.7 0.0
05/03:30am 19.0 19.4 18.2 95 0.5 SW 13 19 7 10 1003.4 1003.2 0.0
05/03:00am 19.4 18.7 18.6 95 0.5 SW 20 24 11 13 1003.9 1003.7 0.0
05/02:30am 19.5 19.4 18.7 95 0.5 SW 17 20 9 11 1004.2 1004.0 0.0
05/02:00am 19.6 19.5 18.8 95 0.5 SSW 17 22 9 12 1004.7 1004.5 0.0
05/01:30am 19.8 18.5 19.0 95 0.5 SSW 24 28 13 15 1005.4 1005.2 0.0
05/01:00am 20.1 18.9 19.3 95 0.5 SSW 24 32 13 17 1006.0 1005.8 0.0
05/12:30am 20.3 19.6 19.5 95 0.5 SSW 22 26 12 14 1006.4 1006.2 0.0
05/12:00am 20.9 20.3 19.7 93 0.8 SSW 22 26 12 14 1007.0 1006.8 0.0
 
Date/Time
EDT
Temp
°C
App
Temp
°C
Dew
Point
Rel
Hum
%
Delta-T
°C
Wind Press
QNH
hPa
Press
MSL
hPa
Rain
since 9 am
mm
Dir
 
Spd
km/h
Gust
km/h
Spd
kts
Gust
kts
04/11:30pm 21.6 22.4 19.0 85 1.6 SSW 13 17 7 9 1007.4 1007.3 0.0
04/11:00pm 21.8 22.5 18.8 83 1.9 SW 13 17 7 9 1007.7 1007.6 0.0
04/10:30pm 21.9 23.4 18.9 83 1.9 WSW 9 11 5 6 1008.1 1008.0 0.0
04/10:00pm 22.3 24.3 18.7 80 2.3 SW 6 7 3 4 1008.6 1008.5 0.0
04/09:30pm 22.2 24.4 18.4 79 2.4 SSW 4 4 2 2 1008.7 1008.6 0.0
04/09:00pm 22.1 24.3 18.3 79 2.4 SSE 4 6 2 3 1008.7 1008.6 0.0
04/08:30pm 22.3 24.6 18.5 79 2.4 SSW 4 6 2 3 1008.6 1008.5 0.0
04/08:00pm 22.4 24.7 18.6 79 2.4 S 4 6 2 3 1008.5 1008.4 0.0
04/07:30pm 22.5 24.4 18.5 78 2.5 SSW 6 7 3 4 1008.4 1008.3 0.0
04/07:00pm 22.5 24.8 18.5 78 2.5 SSE 4 6 2 3 1008.7 1008.6 0.0
04/06:30pm 22.4 24.1 18.0 76 2.7 E 6 7 3 4 1008.6 1008.5 0.0
04/06:00pm 22.6 24.3 18.6 78 2.5 ESE 7 11 4 6 1008.7 1008.6 0.0
04/05:30pm 22.6 23.7 17.9 75 2.9 E 9 11 5 6 1008.6 1008.5 0.0
04/05:00pm 22.7 23.7 17.8 74 3.1 E 9 13 5 7 1008.9 1008.8 0.0
04/04:30pm 23.1 24.0 18.4 75 3.0 E 11 13 6 7 1008.8 1008.7 0.0
04/04:00pm 22.9 23.6 18.0 74 3.1 E 11 13 6 7 1009.1 1009.0 0.0
04/03:30pm 23.0 23.6 18.5 76 2.8 E 13 17 7 9 1009.4 1009.3 0.0
04/03:00pm 23.1 23.2 18.4 75 3.0 E 15 19 8 10 1009.7 1009.6 0.0
04/02:30pm 22.6 22.8 18.6 78 2.5 E 15 19 8 10 1010.3 1010.2 0.0
04/02:00pm 22.2 21.8 18.0 77 2.6 ESE 17 20 9 11 1010.9 1010.8 0.0
04/01:30pm 22.4 22.2 18.4 78 2.5 ESE 17 19 9 10 1011.4 1011.3 0.0
04/01:00pm 22.5 22.3 17.6 74 3.0 ESE 15 19 8 10 1011.6 1011.5 0.0
04/12:30pm 21.5 21.1 17.1 76 2.7 SSE 15 19 8 10 1012.2 1012.1 0.0
04/12:00pm 22.4 21.9 17.8 75 2.9 SSE 17 20 9 11 1012.8 1012.7 0.0
04/11:30am 22.3 22.1 17.7 75 2.9 SSE 15 19 8 10 1013.4 1013.2 0.0
04/11:00am 21.9 21.2 17.3 75 2.8 S 17 22 9 12 1013.7 1013.5 0.0
04/10:30am 21.3 21.1 17.7 80 2.2 SSW 15 19 8 10 1013.9 1013.7 0.0
04/10:00am 20.8 20.4 17.2 80 2.2 SSW 15 19 8 10 1013.9 1013.7 0.0
04/09:30am 20.5 20.0 16.9 80 2.2 SSW 15 19 8 10 1014.1 1013.9 0.0
04/09:00am 20.1 20.4 17.1 83 1.8 SSW 11 13 6 7 1014.0 1013.8 0.0
04/08:30am 20.0 20.3 17.0 83 1.8 SW 11 15 6 8 1013.8 1013.6 0.0
04/08:00am 19.9 20.2 16.9 83 1.8 SW 11 13 6 7 1013.5 1013.3 0.0
04/07:30am 19.7 20.3 16.9 84 1.7 SW 9 11 5 6 1013.2 1013.0 0.0
04/07:00am 19.6 20.2 16.8 84 1.7 SW 9 13 5 7 1012.8 1012.7 0.0
04/06:30am 19.6 20.6 16.8 84 1.7 SSW 7 9 4 5 1012.5 1012.4 0.0
04/06:00am 19.5 20.4 16.7 84 1.7 S 7 9 4 5 1012.5 1012.4 0.0
04/05:30am 19.6 20.5 16.6 83 1.8 SW 7 11 4 6 1012.7 1012.6 0.0
04/05:00am 19.6 20.4 16.4 82 1.9 SW 7 9 4 5 1012.8 1012.7 0.0
04/04:30am 19.5 19.9 16.2 81 2.0 WSW 9 11 5 6 1013.1 1012.9 0.0
04/04:00am 19.5 19.9 16.3 82 1.9 WSW 9 11 5 6 1013.2 1013.0 0.0
04/03:30am 19.5 19.5 16.3 82 1.9 SW 11 13 6 7 1013.4 1013.2 0.0
04/03:00am 19.4 18.2 16.2 82 1.9 SW 17 19 9 10 1013.7 1013.5 0.0

Other Formats:

Comma delimited format used in spreadsheet applications
http://www.bom.gov.au/fwo/IDN60801/IDN60801.94939.axf

JavaScript Object Notation format (JSON) in row-major order
http://www.bom.gov.au/fwo/IDN60801/IDN60801.94939.json